Time;durP1;ratioP1;P1;durP2;ratioP2;P2;SDS_P1;SDS_P2;PMS_P1;PMS_P2;Temp;Humidity;BMP_temperature;BMP_pressure;BME280_temperature;BME280_humidity;BME280_pressure;Samples;Min_cycle;Max_cycle;Signal;HPM_P1;HPM_P2
2022/06/20 00:00:40;;;;;;;12.85;9.68;;;18.40;99.90;;;;;;5249338;28;20028;-75
2022/06/20 00:03:31;;;;;;;13.88;10.48;;;18.50;99.90;;;;;;5247934;28;20017;-76
2022/06/20 00:06:02;;;;;;;16.98;11.20;;;18.40;99.90;;;;;;5249094;28;20539;-75
2022/06/20 00:08:33;;;;;;;14.70;12.77;;;18.40;99.90;;;;;;5249274;28;20017;-75
2022/06/20 00:11:04;;;;;;;19.63;12.68;;;18.20;99.90;;;;;;5248609;28;20097;-75
2022/06/20 00:13:35;;;;;;;14.93;11.20;;;18.30;99.90;;;;;;5249072;28;20096;-75
2022/06/20 00:16:06;;;;;;;17.77;11.93;;;18.40;99.90;;;;;;5248990;28;20033;-75
2022/06/20 00:18:36;;;;;;;13.43;11.15;;;18.30;99.90;;;;;;5247070;28;20064;-75
2022/06/20 00:21:13;;;;;;;15.77;11.73;;;18.30;99.90;;;;;;5248707;28;20350;-76
2022/06/20 00:23:44;;;;;;;17.00;12.52;;;18.10;99.90;;;;;;5249152;28;20025;-75
2022/06/20 00:26:16;;;;;;;13.70;10.98;;;18.00;99.90;;;;;;5247329;28;20057;-76
2022/06/20 00:28:48;;;;;;;12.43;11.15;;;18.00;99.90;;;;;;5247369;28;20027;-76
2022/06/20 00:31:19;;;;;;;15.02;11.82;;;18.00;99.90;;;;;;5248668;28;20114;-75
2022/06/20 00:33:50;;;;;;;15.32;12.13;;;17.90;99.90;;;;;;5248745;28;20040;-75
2022/06/20 00:36:21;;;;;;;13.82;11.82;;;17.70;99.90;;;;;;5248708;28;20020;-75
2022/06/20 00:38:56;;;;;;;13.80;11.65;;;17.90;99.90;;;;;;5248695;28;20012;-75
2022/06/20 00:41:31;;;;;;;13.75;10.73;;;17.90;99.90;;;;;;5248626;28;20046;-75
2022/06/20 00:44:02;;;;;;;14.30;11.07;;;17.90;99.90;;;;;;5248364;28;20045;-75
2022/06/20 00:46:43;;;;;;;12.50;10.35;;;17.90;99.90;;;;;;5248533;28;20037;-75
2022/06/20 00:49:20;;;;;;;14.65;10.98;;;17.90;99.90;;;;;;5248592;28;20025;-75
2022/06/20 00:52:15;;;;;;;11.77;10.50;;;17.70;99.90;;;;;;5247379;28;20024;-75
2022/06/20 00:55:01;;;;;;;13.18;10.88;;;17.70;99.90;;;;;;5248676;28;20340;-75
2022/06/20 00:57:40;;;;;;;16.02;11.77;;;17.70;99.90;;;;;;5248547;28;20028;-75
2022/06/20 01:00:25;;;;;;;14.25;9.73;;;17.50;99.90;;;;;;5248314;28;20100;-76
2022/06/20 01:03:16;;;;;;;14.18;10.35;;;17.60;99.90;;;;;;5248374;28;20036;-76
2022/06/20 01:05:52;;;;;;;12.82;10.85;;;17.60;99.90;;;;;;5248368;28;20040;-75
2022/06/20 01:08:29;;;;;;;11.85;8.52;;;17.30;99.90;;;;;;5248297;28;20025;-75
2022/06/20 01:11:05;;;;;;;13.13;10.48;;;17.40;99.90;;;;;;5246868;28;20033;-76
2022/06/20 01:13:35;;;;;;;10.40;8.82;;;17.30;99.90;;;;;;5248167;28;20028;-75
2022/06/20 01:16:27;;;;;;;9.63;8.60;;;17.40;99.90;;;;;;5249022;28;20036;-76
2022/06/20 01:19:16;;;;;;;9.35;8.38;;;17.40;99.90;;;;;;5248911;28;20066;-75
2022/06/20 01:21:59;;;;;;;11.57;10.33;;;17.30;99.90;;;;;;5248773;28;20103;-75
2022/06/20 01:24:44;;;;;;;13.32;9.32;;;17.20;99.90;;;;;;5247384;28;20021;-76
2022/06/20 01:27:33;;;;;;;9.65;8.32;;;17.20;99.90;;;;;;5248958;28;20464;-75
2022/06/20 01:30:09;;;;;;;10.45;8.82;;;17.20;99.90;;;;;;5249983;28;20024;-76
2022/06/20 01:32:45;;;;;;;11.93;9.18;;;17.20;99.90;;;;;;5253010;28;20468;-75
2022/06/20 01:38:11;;;;;;;9.20;8.30;;;17.20;99.90;;;;;;5220953;28;20036;-76
2022/06/20 01:43:36;;;;;;;9.60;8.45;;;17.30;99.90;;;;;;5252322;28;20040;-75
2022/06/20 01:46:10;;;;;;;9.63;7.30;;;17.20;99.90;;;;;;5251776;28;20052;-75
2022/06/20 01:48:45;;;;;;;8.85;7.90;;;17.30;99.90;;;;;;5251593;28;20392;-74
2022/06/20 01:51:23;;;;;;;12.65;8.75;;;17.20;99.90;;;;;;5251927;28;20020;-75
2022/06/20 01:53:55;;;;;;;10.43;8.27;;;17.20;99.90;;;;;;5250719;28;20349;-75
2022/06/20 01:56:28;;;;;;;10.50;8.25;;;17.20;99.90;;;;;;5251989;28;20025;-75
2022/06/20 01:59:10;;;;;;;11.02;8.18;;;17.10;99.90;;;;;;5250443;28;20034;-76
2022/06/20 02:01:41;;;;;;;11.77;8.30;;;17.20;99.90;;;;;;5250416;28;20028;-75
2022/06/20 02:04:17;;;;;;;13.30;8.93;;;17.10;99.90;;;;;;5251638;28;20476;-76
2022/06/20 02:06:48;;;;;;;10.73;8.18;;;17.10;99.90;;;;;;5251682;28;20039;-75
2022/06/20 02:09:19;;;;;;;11.55;8.45;;;17.00;99.90;;;;;;5251353;28;20368;-76
2022/06/20 02:11:50;;;;;;;11.60;8.88;;;17.10;99.90;;;;;;5251568;28;20029;-75
2022/06/20 02:14:49;;;;;;;9.95;8.95;;;17.20;99.90;;;;;;5251312;28;20384;-76
2022/06/20 02:17:29;;;;;;;18.25;8.45;;;17.20;99.90;;;;;;5243159;28;20045;-75
2022/06/20 02:20:03;;;;;;;8.75;7.93;;;17.20;99.90;;;;;;5251329;28;20024;-75
2022/06/20 02:22:35;;;;;;;10.05;7.65;;;17.30;99.90;;;;;;5250073;28;20039;-75
2022/06/20 02:25:11;;;;;;;9.93;7.82;;;17.40;99.90;;;;;;5251028;28;20029;-75
2022/06/20 02:27:47;;;;;;;8.15;7.10;;;17.20;99.90;;;;;;5251167;28;20024;-75
2022/06/20 02:30:19;;;;;;;11.07;7.80;;;17.30;99.90;;;;;;5249984;28;20082;-75
2022/06/20 02:32:58;;;;;;;10.63;7.38;;;17.20;99.90;;;;;;5251017;28;20021;-75
2022/06/20 02:35:29;;;;;;;12.40;8.13;;;17.10;99.90;;;;;;5250922;28;20029;-76
2022/06/20 02:38:00;;;;;;;10.95;7.88;;;17.10;99.90;;;;;;5251211;28;20637;-76
2022/06/20 02:40:31;;;;;;;9.25;7.13;;;17.10;99.90;;;;;;5249861;28;20048;-75
2022/06/20 02:43:14;;;;;;;9.75;8.30;;;17.00;99.90;;;;;;5250411;28;20032;-75
2022/06/20 02:45:45;;;;;;;10.88;8.60;;;17.00;99.90;;;;;;5249114;28;20060;-75
2022/06/20 02:48:20;;;;;;;11.90;9.05;;;17.20;99.90;;;;;;5249492;28;20020;-75
2022/06/20 02:50:56;;;;;;;15.68;9.38;;;17.10;99.90;;;;;;5250979;28;20392;-76
2022/06/20 02:53:41;;;;;;;10.27;8.73;;;17.20;99.90;;;;;;5249462;28;20094;-75
2022/06/20 02:56:15;;;;;;;11.95;8.60;;;17.20;99.90;;;;;;5250583;28;20031;-75
2022/06/20 02:58:53;;;;;;;14.02;9.35;;;17.40;99.90;;;;;;5250498;28;20086;-76
2022/06/20 03:01:47;;;;;;;14.63;9.38;;;17.40;99.90;;;;;;5249490;28;20017;-76
2022/06/20 03:04:17;;;;;;;13.75;9.65;;;17.50;99.90;;;;;;5250469;28;20047;-75
2022/06/20 03:07:01;;;;;;;11.88;9.75;;;17.40;99.90;;;;;;5250288;28;20032;-75
2022/06/20 03:09:34;;;;;;;15.93;10.07;;;17.50;99.90;;;;;;5250228;28;20025;-75
2022/06/20 03:12:07;;;;;;;12.32;9.95;;;17.60;99.90;;;;;;5249162;28;20618;-75
2022/06/20 03:14:50;;;;;;;14.60;9.38;;;17.70;99.90;;;;;;5250447;28;20043;-75
2022/06/20 03:17:22;;;;;;;13.48;10.15;;;17.80;99.90;;;;;;5250192;28;20025;-76
2022/06/20 03:20:00;;;;;;;11.05;9.20;;;17.80;99.90;;;;;;5250074;28;20103;-75
2022/06/20 03:22:38;;;;;;;15.02;8.80;;;17.70;99.90;;;;;;5250176;28;20103;-75
2022/06/20 03:25:12;;;;;;;11.98;8.52;;;17.70;99.90;;;;;;5250055;28;20388;-75
2022/06/20 03:27:44;;;;;;;10.13;7.82;;;17.70;99.90;;;;;;5249906;28;20047;-75
2022/06/20 03:30:41;;;;;;;10.23;8.23;;;17.80;99.90;;;;;;5250274;28;20020;-75
2022/06/20 03:33:14;;;;;;;12.02;7.82;;;17.70;99.90;;;;;;5247192;28;20032;-75
2022/06/20 03:35:56;;;;;;;12.60;8.93;;;17.70;99.90;;;;;;5249777;28;20025;-76
2022/06/20 03:38:27;;;;;;;9.35;8.32;;;17.80;99.90;;;;;;5250322;28;20473;-76
2022/06/20 03:40:58;;;;;;;10.98;9.43;;;17.90;99.90;;;;;;5249519;28;20029;-75
2022/06/20 03:43:29;;;;;;;13.13;9.68;;;17.90;99.90;;;;;;5249655;28;20040;-76
2022/06/20 03:46:04;;;;;;;10.23;9.13;;;17.90;99.90;;;;;;5249545;28;20139;-75
2022/06/20 03:48:41;;;;;;;12.52;10.57;;;18.10;99.90;;;;;;5249381;28;20075;-75
2022/06/20 03:51:21;;;;;;;14.43;11.25;;;18.10;99.90;;;;;;5248861;28;20119;-76
2022/06/20 03:54:08;;;;;;;13.55;10.75;;;18.00;99.90;;;;;;5249453;28;20021;-75
2022/06/20 03:56:47;;;;;;;14.55;10.02;;;18.10;99.90;;;;;;5249265;28;20032;-75
2022/06/20 03:59:24;;;;;;;11.27;10.07;;;18.30;99.90;;;;;;5249249;28;20147;-76
2022/06/20 04:01:57;;;;;;;11.80;9.77;;;18.50;99.90;;;;;;5249613;28;20046;-76
2022/06/20 04:04:33;;;;;;;14.13;10.95;;;18.60;99.90;;;;;;5248216;28;20472;-76
2022/06/20 04:07:11;;;;;;;13.65;10.02;;;18.80;99.90;;;;;;5247941;28;20040;-76
2022/06/20 04:13:05;;;;;;;13.15;10.70;;;18.70;99.90;;;;;;5249281;28;20392;-75
2022/06/20 04:15:49;;;;;;;16.90;11.32;;;18.80;99.90;;;;;;5249042;28;20117;-75
2022/06/20 04:18:29;;;;;;;14.90;11.20;;;18.80;99.90;;;;;;5248939;28;20532;-75
2022/06/20 04:21:16;;;;;;;16.77;11.95;;;18.80;99.90;;;;;;5248851;28;20028;-75
2022/06/20 04:23:57;;;;;;;14.68;11.23;;;18.80;99.90;;;;;;5248987;28;20035;-75
2022/06/20 04:26:46;;;;;;;13.32;9.90;;;18.90;99.90;;;;;;5248901;28;20040;-75
2022/06/20 04:29:30;;;;;;;16.23;10.98;;;18.90;99.90;;;;;;5247541;28;20035;-76
2022/06/20 04:32:20;;;;;;;13.25;10.15;;;18.90;99.90;;;;;;5247596;28;20029;-75
2022/06/20 04:35:00;;;;;;;12.95;9.02;;;19.10;99.90;;;;;;5227911;28;20021;-76
2022/06/20 04:37:42;;;;;;;9.50;8.25;;;19.20;99.90;;;;;;5228122;28;20432;-76
2022/06/20 04:40:39;;;;;;;7.80;6.63;;;19.40;99.90;;;;;;5227878;28;20453;-75
2022/06/20 04:43:26;;;;;;;7.35;5.88;;;19.80;99.90;;;;;;5225537;28;20029;-75
2022/06/20 04:46:27;;;;;;;7.55;5.30;;;20.10;99.90;;;;;;5227665;28;20139;-75
2022/06/20 04:49:00;;;;;;;7.63;4.47;;;20.20;99.90;;;;;;5226368;28;20028;-76
2022/06/20 04:51:34;;;;;;;6.45;3.83;;;20.40;99.90;;;;;;5226635;28;20461;-76
2022/06/20 04:54:09;;;;;;;7.82;4.47;;;20.70;99.90;;;;;;5227888;28;20021;-75
2022/06/20 04:56:41;;;;;;;7.05;4.15;;;20.80;99.90;;;;;;5227765;28;20017;-75
2022/06/20 04:59:17;;;;;;;9.00;4.05;;;20.90;99.90;;;;;;5226581;28;20024;-75
2022/06/20 05:01:49;;;;;;;7.97;4.70;;;21.00;99.90;;;;;;5238707;28;20032;-75
2022/06/20 05:04:29;;;;;;;6.70;4.38;;;21.10;99.90;;;;;;5247660;28;20033;-76
2022/06/20 05:07:04;;;;;;;4.70;3.95;;;21.10;99.90;;;;;;5248558;28;20120;-76
2022/06/20 05:10:02;;;;;;;5.65;3.42;;;21.10;99.90;;;;;;5248102;28;20103;-75
2022/06/20 05:12:52;;;;;;;10.00;4.10;;;21.20;99.90;;;;;;5239559;28;20052;-75
2022/06/20 05:15:31;;;;;;;5.68;3.65;;;21.10;99.90;;;;;;5248166;28;20178;-75
2022/06/20 05:18:23;;;;;;;6.53;3.22;;;21.00;99.90;;;;;;5246637;28;20033;-75
2022/06/20 05:21:06;;;;;;;6.47;3.30;;;21.00;99.90;;;;;;5244335;28;20043;-75
2022/06/20 05:23:46;;;;;;;6.35;3.00;;;21.30;99.90;;;;;;5246637;28;20020;-75
2022/06/20 05:26:20;;;;;;;4.15;3.03;;;21.50;99.90;;;;;;5248181;28;20028;-76
2022/06/20 05:28:54;;;;;;;7.05;3.92;;;21.80;99.90;;;;;;5229242;28;20059;-75
2022/06/20 05:31:37;;;;;;;5.90;3.05;;;21.60;99.90;;;;;;5231104;28;20100;-74
2022/06/20 05:34:27;;;;;;;5.65;3.67;;;21.50;99.90;;;;;;5237982;28;20025;-75
2022/06/20 05:37:07;;;;;;;3.30;2.95;;;21.20;99.90;;;;;;5233183;28;20048;-76
2022/06/20 05:40:10;;;;;;;6.75;3.47;;;21.00;99.90;;;;;;5234099;28;20440;-75
2022/06/20 05:42:48;;;;;;;6.60;3.17;;;21.50;99.90;;;;;;5239778;28;20028;-76
2022/06/20 05:45:26;;;;;;;6.32;3.00;;;21.40;99.90;;;;;;5233768;28;20526;-76
2022/06/20 05:48:11;;;;;;;8.85;3.33;;;21.30;99.90;;;;;;5236209;28;20032;-76
2022/06/20 05:50:58;;;;;;;3.97;2.92;;;21.30;99.90;;;;;;5235707;28;20028;-75
2022/06/20 05:53:56;;;;;;;5.47;2.45;;;21.50;99.90;;;;;;5235573;28;20017;-75
2022/06/20 05:57:05;;;;;;;8.93;2.95;;;21.70;99.90;;;;;;5234796;28;20017;-74
2022/06/20 05:59:57;;;;;;;6.10;3.05;;;21.80;99.90;;;;;;5227314;28;20461;-75
2022/06/20 06:02:42;;;;;;;9.60;2.90;;;22.50;99.90;;;;;;5234573;28;20029;-75
2022/06/20 06:05:23;;;;;;;5.20;3.22;;;22.60;99.90;;;;;;5229688;28;20044;-75
2022/06/20 06:08:25;;;;;;;3.33;2.38;;;22.30;99.90;;;;;;5241651;28;20029;-73
2022/06/20 06:11:21;;;;;;;5.63;2.40;;;22.40;99.90;;;;;;5217083;28;20037;-73
2022/06/20 06:14:08;;;;;;;3.97;2.47;;;22.60;99.90;;;;;;5232561;28;20115;-75
2022/06/20 06:17:07;;;;;;;4.68;2.45;;;22.70;99.90;;;;;;5242754;28;20423;-72
2022/06/20 06:20:03;;;;;;;3.90;2.83;;;22.70;99.90;;;;;;5244458;28;20021;-74
2022/06/20 06:22:45;;;;;;;5.07;2.65;;;22.90;99.90;;;;;;5235854;28;20024;-74
2022/06/20 06:25:31;;;;;;;3.50;2.75;;;22.40;99.90;;;;;;5239459;28;20029;-74
2022/06/20 06:28:20;;;;;;;7.68;3.13;;;22.30;99.90;;;;;;5239546;28;20029;-74
2022/06/20 06:31:36;;;;;;;8.55;3.20;;;22.50;99.90;;;;;;5242904;28;20023;-76
2022/06/20 06:34:32;;;;;;;4.95;2.88;;;22.50;99.90;;;;;;5198454;28;20397;-75
2022/06/20 06:37:26;;;;;;;6.05;2.97;;;22.20;99.90;;;;;;5239321;28;20029;-75
2022/06/20 06:40:10;;;;;;;5.45;2.80;;;22.50;99.90;;;;;;5233678;28;20060;-75
2022/06/20 06:42:55;;;;;;;6.70;2.67;;;22.10;99.90;;;;;;5244338;28;20502;-75
2022/06/20 06:45:34;;;;;;;3.78;2.50;;;22.20;99.90;;;;;;5241948;28;20488;-76
2022/06/20 06:48:20;;;;;;;3.42;2.35;;;22.00;99.90;;;;;;5233761;28;20013;-75
2022/06/20 06:51:15;;;;;;;4.10;2.55;;;21.90;99.90;;;;;;5241002;28;20040;-75
2022/06/20 06:54:23;;;;;;;6.03;2.75;;;22.00;99.90;;;;;;5244727;28;20016;-75
2022/06/20 06:57:11;;;;;;;5.43;2.55;;;22.60;99.90;;;;;;5234838;28;20044;-75
2022/06/20 07:00:05;;;;;;;4.53;2.83;;;22.70;99.90;;;;;;5244113;28;20029;-76
2022/06/20 07:02:54;;;;;;;4.50;2.65;;;22.80;99.90;;;;;;5244198;28;20554;-75
2022/06/20 07:05:38;;;;;;;4.93;2.40;;;23.10;99.90;;;;;;5241608;28;20054;-74
2022/06/20 07:08:20;;;;;;;5.32;2.47;;;23.30;99.90;;;;;;5233064;28;20021;-76
2022/06/20 07:11:21;;;;;;;2.45;2.20;;;23.40;99.90;;;;;;5240733;28;20413;-76
2022/06/20 07:14:32;;;;;;;3.40;2.15;;;23.20;99.90;;;;;;5245288;28;20353;-75
2022/06/20 07:17:11;;;;;;;2.08;1.85;;;23.10;99.90;;;;;;5237354;28;20055;-75
2022/06/20 07:19:48;;;;;;;5.47;2.38;;;23.10;99.90;;;;;;5233883;28;20021;-76
2022/06/20 07:22:23;;;;;;;2.30;1.90;;;23.60;99.90;;;;;;5245803;28;20649;-76
2022/06/20 07:24:55;;;;;;;3.42;2.28;;;23.50;99.90;;;;;;5237760;28;20432;-76
2022/06/20 07:27:43;;;;;;;4.40;2.28;;;23.60;99.90;;;;;;5236685;28;20538;-75
2022/06/20 07:30:32;;;;;;;4.20;2.30;;;23.50;99.90;;;;;;5245471;28;20418;-76
2022/06/20 07:33:17;;;;;;;6.18;2.22;;;22.90;99.90;;;;;;5237186;28;20059;-75
2022/06/20 07:35:55;;;;;;;4.00;2.22;;;22.50;99.90;;;;;;5234557;28;20021;-76
2022/06/20 07:38:52;;;;;;;3.92;2.35;;;22.60;99.90;;;;;;5232562;28;20090;-76
2022/06/20 07:41:46;;;;;;;4.03;2.10;;;23.00;99.90;;;;;;5248778;28;20032;-74
2022/06/20 07:45:17;;;;;;;5.22;2.10;;;22.90;99.90;;;;;;5248805;28;20031;-76
2022/06/20 07:48:00;;;;;;;3.88;2.05;;;23.70;99.90;;;;;;5180652;28;20405;-75
2022/06/20 07:50:42;;;;;;;5.07;2.17;;;23.60;99.90;;;;;;5234753;28;20016;-76
2022/06/20 07:53:33;;;;;;;2.92;1.88;;;23.40;99.90;;;;;;5239498;28;20036;-76
2022/06/20 07:56:32;;;;;;;3.78;2.08;;;23.20;99.90;;;;;;5232954;28;20029;-77
2022/06/20 07:59:13;;;;;;;3.53;2.17;;;23.50;99.90;;;;;;5234685;28;20063;-76
2022/06/20 08:02:15;;;;;;;3.42;2.40;;;23.00;99.90;;;;;;5233484;28;20060;-75
2022/06/20 08:04:56;;;;;;;4.68;2.05;;;23.40;99.90;;;;;;5240488;28;20033;-75
2022/06/20 08:07:42;;;;;;;4.63;2.30;;;23.70;99.90;;;;;;5234373;28;20029;-75
2022/06/20 08:10:23;;;;;;;5.28;2.13;;;24.30;99.90;;;;;;5245134;28;20419;-77
2022/06/20 08:13:20;;;;;;;3.58;1.63;;;24.40;99.90;;;;;;5236690;28;20024;-75
2022/06/20 08:16:22;;;;;;;3.97;2.10;;;24.30;99.90;;;;;;5243242;28;20028;-77
2022/06/20 08:18:57;;;;;;;2.45;2.08;;;24.20;99.90;;;;;;5233372;28;20036;-76
2022/06/20 08:21:45;;;;;;;5.95;2.22;;;24.00;99.90;;;;;;5234063;28;20107;-75
2022/06/20 08:24:36;;;;;;;4.82;2.10;;;23.80;99.90;;;;;;5244157;28;20033;-77
2022/06/20 08:27:11;;;;;;;5.72;2.42;;;23.50;99.90;;;;;;5236271;28;20063;-78
2022/06/20 08:29:54;;;;;;;4.38;1.90;;;24.30;99.90;;;;;;5234355;28;20021;-78
2022/06/20 08:32:44;;;;;;;3.28;1.90;;;24.70;99.90;;;;;;5231840;28;20016;-77
2022/06/20 08:35:40;;;;;;;4.13;1.90;;;24.60;99.90;;;;;;5235666;28;20033;-76
2022/06/20 08:38:25;;;;;;;3.17;1.80;;;24.70;99.90;;;;;;5214732;28;20123;-76
2022/06/20 08:41:23;;;;;;;4.15;1.77;;;24.70;99.90;;;;;;5234916;28;20066;-77
2022/06/20 08:44:22;;;;;;;2.78;1.80;;;24.20;99.90;;;;;;5231501;28;20036;-77
2022/06/20 08:47:24;;;;;;;5.13;1.98;;;24.40;99.90;;;;;;5232335;28;20036;-78
2022/06/20 08:50:25;;;;;;;3.00;1.90;;;24.50;99.90;;;;;;5244140;28;20024;-76
2022/06/20 08:53:22;;;;;;;5.35;2.10;;;24.40;99.90;;;;;;5236546;28;20035;-77
2022/06/20 08:56:25;;;;;;;2.55;1.60;;;25.10;99.90;;;;;;5232349;28;20059;-77
2022/06/20 08:59:09;;;;;;;3.72;1.70;;;24.80;99.90;;;;;;5218188;28;20086;-75
2022/06/20 09:02:10;;;;;;;8.77;2.22;;;24.40;99.90;;;;;;5233662;28;20013;-75
2022/06/20 09:05:04;;;;;;;3.10;1.60;;;24.40;99.90;;;;;;5233020;28;20033;-74
2022/06/20 09:07:51;;;;;;;3.83;1.77;;;24.60;99.90;;;;;;5233801;28;20025;-76
2022/06/20 09:11:00;;;;;;;2.92;2.03;;;24.80;99.90;;;;;;5243416;28;20036;-73
2022/06/20 09:13:51;;;;;;;;;;;24.50;99.90;;;;;;5240626;28;20032;-75
2022/06/20 09:16:26;;;;;;;2.78;1.75;;;25.20;99.90;;;;;;5230299;28;20364;-75
2022/06/20 09:19:24;;;;;;;11.80;1.88;;;25.50;99.90;;;;;;5239286;28;20124;-76
2022/06/20 09:22:15;;;;;;;4.32;1.70;;;25.10;99.90;;;;;;5243769;28;20025;-74
2022/06/20 09:25:17;;;;;;;3.03;1.83;;;24.80;99.90;;;;;;5234440;28;20074;-76
2022/06/20 09:28:23;;;;;;;5.53;2.10;;;24.30;99.90;;;;;;5232363;28;20025;-75
2022/06/20 09:31:18;;;;;;;6.68;1.90;;;24.60;99.90;;;;;;5225718;28;20084;-76
2022/06/20 09:34:24;;;;;;;3.72;1.67;;;24.70;99.90;;;;;;5236187;28;20037;-75
2022/06/20 09:37:39;;;;;;;2.90;1.75;;;24.90;99.90;;;;;;5235632;28;20016;-77
2022/06/20 09:40:38;;;;;;;4.18;1.83;;;25.30;99.90;;;;;;5232057;28;20385;-77
2022/06/20 09:43:35;;;;;;;4.72;1.73;;;25.40;99.90;;;;;;5226997;28;20366;-76
2022/06/20 09:46:52;;;;;;;5.15;1.90;;;25.60;99.90;;;;;;5226663;28;20507;-77
2022/06/20 09:49:35;;;;;;;6.47;1.70;;;25.40;99.90;;;;;;5198868;28;20385;-76
2022/06/20 09:52:29;;;;;;;2.50;1.65;;;25.30;99.90;;;;;;5230099;28;20063;-76
2022/06/20 09:55:21;;;;;;;4.78;1.80;;;25.10;99.90;;;;;;5231189;28;20373;-76
2022/06/20 09:58:35;;;;;;;5.72;1.70;;;25.60;99.90;;;;;;5238478;28;20012;-77
2022/06/20 10:01:15;;;;;;;4.43;1.65;;;25.80;99.90;;;;;;5187277;28;20033;-76
2022/06/20 10:04:14;;;;;;;4.03;1.60;;;25.40;99.90;;;;;;5171304;28;20030;-76
2022/06/20 10:07:03;;;;;;;7.82;2.20;;;25.10;99.90;;;;;;5240436;28;20044;-77
2022/06/20 10:10:17;;;;;;;4.55;2.30;;;25.40;99.90;;;;;;5251429;28;20032;-74
2022/06/20 10:13:06;;;;;;;4.25;2.20;;;25.60;99.90;;;;;;5212248;28;20047;-75
2022/06/20 10:15:45;;;;;;;4.07;1.90;;;25.50;99.90;;;;;;5251356;28;20021;-76
2022/06/20 10:18:21;;;;;;;;;;;26.00;99.90;;;;;;5251753;28;20123;-76
2022/06/20 10:21:34;;;;;;;2.50;1.65;;;25.30;99.90;;;;;;5250090;28;19944;-73
2022/06/20 10:24:23;;;;;;;6.75;1.80;;;25.50;99.90;;;;;;5251240;28;20029;-74
2022/06/20 10:27:14;;;;;;;3.78;1.45;;;25.90;99.90;;;;;;5251191;28;20376;-73
2022/06/20 10:30:12;;;;;;;4.22;1.40;;;25.10;99.90;;;;;;5228828;28;20029;-74
2022/06/20 10:32:54;;;;;;;2.80;1.85;;;25.40;99.90;;;;;;5230486;28;20132;-74
2022/06/20 10:35:47;;;;;;;2.35;1.60;;;25.00;99.90;;;;;;5229149;28;20388;-74
2022/06/20 10:38:38;;;;;;;2.78;1.70;;;24.70;99.90;;;;;;5230376;28;20021;-76
2022/06/20 10:41:24;;;;;;;3.83;1.58;;;25.60;99.90;;;;;;5230095;28;20028;-75
2022/06/20 10:44:13;;;;;;;3.63;1.58;;;24.70;99.90;;;;;;5229810;28;20108;-74
2022/06/20 10:47:19;;;;;;;2.65;1.92;;;25.30;99.90;;;;;;5229953;28;20049;-76
2022/06/20 10:50:17;;;;;;;2.33;1.45;;;25.40;99.90;;;;;;5230119;28;20090;-73
2022/06/20 10:53:15;;;;;;;5.82;1.80;;;25.80;99.90;;;;;;5228679;28;20100;-73
2022/06/20 10:55:53;;;;;;;4.00;1.88;;;25.00;99.90;;;;;;5230267;28;20446;-74
2022/06/20 10:58:45;;;;;;;10.75;1.75;;;24.80;99.90;;;;;;5241885;28;20103;-75
2022/06/20 11:01:47;;;;;;;3.17;1.80;;;24.90;99.90;;;;;;5239672;28;20444;-77
2022/06/20 11:04:47;;;;;;;4.47;1.50;;;25.20;99.90;;;;;;5229852;28;20036;-76
2022/06/20 11:07:46;;;;;;;4.40;1.67;;;25.10;99.90;;;;;;5228278;28;20454;-78
2022/06/20 11:10:51;;;;;;;6.82;1.58;;;24.80;99.90;;;;;;5229373;28;20025;-76
2022/06/20 11:13:34;;;;;;;5.93;2.00;;;24.60;99.90;;;;;;5229380;28;20040;-76
2022/06/20 11:16:09;;;;;;;2.78;1.83;;;24.50;99.90;;;;;;5229621;28;20049;-76
2022/06/20 11:19:11;;;;;;;5.07;1.70;;;24.70;99.90;;;;;;5228125;28;20495;-73
2022/06/20 11:21:49;;;;;;;3.80;1.77;;;24.50;99.90;;;;;;5228010;28;20032;-74
2022/06/20 11:24:32;;;;;;;2.45;1.98;;;24.20;99.90;;;;;;5229159;28;20456;-74
2022/06/20 11:27:50;;;;;;;2.63;1.95;;;24.30;99.90;;;;;;5228657;28;20140;-74
2022/06/20 11:30:37;;;;;;;8.25;2.40;;;24.00;99.90;;;;;;5249403;28;20025;-77
2022/06/20 11:36:40;;;;;;;4.82;2.20;;;23.50;99.90;;;;;;5250294;28;20125;-75
2022/06/20 11:39:32;;;;;;;4.93;2.38;;;23.80;99.90;;;;;;5247974;28;20035;-75
2022/06/20 11:42:23;;;;;;;4.70;2.13;;;23.80;99.90;;;;;;5247414;28;20051;-75
2022/06/20 11:45:26;;;;;;;6.10;3.13;;;24.00;99.90;;;;;;5249025;28;20052;-76
2022/06/20 11:48:22;;;;;;;10.82;2.20;;;24.70;99.90;;;;;;5249539;28;20035;-76
2022/06/20 11:51:10;;;;;;;6.40;1.80;;;25.20;99.90;;;;;;5249268;28;20043;-73
2022/06/20 11:53:57;;;;;;;3.10;1.80;;;24.60;99.90;;;;;;5247701;28;20028;-74
2022/06/20 11:56:43;;;;;;;3.45;1.75;;;24.20;99.90;;;;;;5249063;28;20360;-75
2022/06/20 11:59:23;;;;;;;5.40;2.00;;;24.20;99.90;;;;;;5230278;28;20028;-75
2022/06/20 12:02:32;;;;;;;6.85;2.40;;;24.30;99.90;;;;;;5228752;28;20020;-76
2022/06/20 12:05:22;;;;;;;4.57;1.87;;;24.30;99.90;;;;;;5228431;28;20033;-76
2022/06/20 12:07:58;;;;;;;5.35;2.03;;;24.10;99.90;;;;;;5226327;28;20028;-76
2022/06/20 12:10:48;;;;;;;4.07;1.80;;;23.80;99.90;;;;;;5227321;28;20029;-75
2022/06/20 12:13:59;;;;;;;5.82;2.10;;;23.60;99.90;;;;;;5226694;28;20044;-76
2022/06/20 12:16:41;;;;;;;3.67;1.90;;;23.60;99.90;;;;;;5228312;28;20036;-76
2022/06/20 12:25:46;;;;;;;5.80;2.33;;;23.70;99.90;;;;;;5227702;28;20059;-76
2022/06/20 12:28:41;;;;;;;5.53;2.38;;;24.20;99.90;;;;;;5227875;28;20032;-76
2022/06/20 12:31:26;;;;;;;3.42;2.30;;;24.60;99.90;;;;;;5227076;28;20441;-74
2022/06/20 12:34:18;;;;;;;6.07;2.63;;;24.20;99.90;;;;;;5227986;28;20029;-74
2022/06/20 12:37:29;;;;;;;6.40;1.88;;;24.00;99.90;;;;;;5227938;28;20542;-73
2022/06/20 12:40:34;;;;;;;3.53;2.15;;;23.90;99.90;;;;;;5226897;28;20377;-77
2022/06/20 12:43:22;;;;;;;8.95;2.40;;;23.80;99.90;;;;;;5227577;28;20060;-76
2022/06/20 12:46:42;;;;;;;6.30;2.20;;;23.40;99.90;;;;;;5227668;28;20044;-76
2022/06/20 12:49:44;;;;;;;5.30;2.50;;;23.40;99.90;;;;;;5217838;28;20029;-76
2022/06/20 12:52:51;;;;;;;2.92;1.92;;;23.30;99.90;;;;;;5232447;28;20116;-76
2022/06/20 12:55:47;;;;;;;5.57;1.95;;;23.40;99.90;;;;;;5231554;28;20963;-76
2022/06/20 12:59:06;;;;;;;5.70;2.25;;;23.40;99.90;;;;;;5237550;28;20021;-76
2022/06/20 13:02:06;;;;;;;6.38;2.50;;;23.40;99.90;;;;;;5248345;28;20024;-76
2022/06/20 13:05:01;;;;;;;6.30;2.40;;;23.00;99.90;;;;;;5248155;28;20027;-77
2022/06/20 13:07:55;;;;;;;8.48;2.60;;;23.20;99.90;;;;;;5248147;28;20107;-76
2022/06/20 13:11:00;;;;;;;6.82;2.50;;;23.20;99.90;;;;;;5247555;28;20024;-76
2022/06/20 13:13:52;;;;;;;5.90;2.42;;;23.30;99.90;;;;;;5226227;28;20506;-75
2022/06/20 13:16:50;;;;;;;7.88;2.53;;;23.30;99.90;;;;;;5227402;28;20108;-75
2022/06/20 13:19:44;;;;;;;13.32;3.65;;;23.80;99.90;;;;;;5227245;28;20033;-76
2022/06/20 13:23:05;;;;;;;4.90;2.72;;;23.40;99.90;;;;;;5227212;28;20112;-75
2022/06/20 13:26:15;;;;;;;4.43;2.50;;;23.30;99.90;;;;;;5174844;28;20041;-76
2022/06/20 13:29:24;;;;;;;7.20;2.50;;;23.00;99.90;;;;;;5231415;28;20024;-75
2022/06/20 13:32:25;;;;;;;8.87;3.33;;;23.00;99.90;;;;;;5230254;28;20050;-75
2022/06/20 13:35:16;;;;;;;5.05;2.70;;;22.90;99.90;;;;;;5231435;28;20271;-75
2022/06/20 13:38:00;;;;;;;7.45;2.78;;;23.30;99.90;;;;;;5231315;28;20045;-76
2022/06/20 13:41:21;;;;;;;7.75;2.88;;;23.20;99.90;;;;;;5245404;28;20024;-75
2022/06/20 13:44:42;;;;;;;5.32;2.25;;;23.10;99.90;;;;;;5248248;28;20020;-76
2022/06/20 13:47:30;;;;;;;6.63;2.65;;;23.10;99.90;;;;;;5243271;28;20040;-75
2022/06/20 13:50:43;;;;;;;11.05;2.63;;;23.50;99.90;;;;;;5247611;28;20024;-75
2022/06/20 13:53:52;;;;;;;6.55;2.28;;;23.80;99.90;;;;;;5251381;28;20039;-76
2022/06/20 13:56:30;;;;;;;7.15;2.67;;;23.60;99.90;;;;;;5252041;28;20029;-75
2022/06/20 13:59:32;;;;;;;4.80;2.15;;;23.50;99.90;;;;;;5233980;28;20041;-76
2022/06/20 14:02:32;;;;;;;6.32;2.38;;;23.10;99.90;;;;;;5232553;28;20037;-76
2022/06/20 14:05:23;;;;;;;4.72;2.47;;;23.20;99.90;;;;;;5204425;28;20048;-76
2022/06/20 14:08:22;;;;;;;4.95;2.60;;;23.20;99.90;;;;;;5228539;28;20036;-76
2022/06/20 14:11:00;;;;;;;5.97;2.72;;;23.10;99.90;;;;;;5233958;28;20005;-76
2022/06/20 14:13:47;;;;;;;6.38;2.65;;;23.30;99.90;;;;;;5240107;28;20025;-76
2022/06/20 14:16:32;;;;;;;6.00;2.10;;;23.50;99.90;;;;;;5249786;28;20131;-76
2022/06/20 14:19:35;;;;;;;7.32;2.20;;;23.70;99.90;;;;;;5251023;28;20415;-76
2022/06/20 14:22:23;;;;;;;5.75;2.28;;;23.60;99.90;;;;;;5248223;28;20033;-76
2022/06/20 14:25:23;;;;;;;6.68;2.28;;;23.30;99.90;;;;;;5250984;28;20016;-76
2022/06/20 14:28:00;;;;;;;6.63;2.40;;;23.00;99.90;;;;;;5251364;28;20099;-75
2022/06/20 14:30:40;;;;;;;9.57;2.42;;;23.00;99.90;;;;;;5250880;28;20027;-75
2022/06/20 14:33:49;;;;;;;7.60;2.95;;;22.80;99.90;;;;;;5251068;28;20477;-75
2022/06/20 14:36:49;;;;;;;;;;;22.70;99.90;;;;;;5232104;28;20532;-76
2022/06/20 14:39:49;;;;;;;6.55;2.67;;;22.60;99.90;;;;;;5250981;28;19904;-74
2022/06/20 14:42:36;;;;;;;8.68;2.70;;;22.70;99.90;;;;;;5249080;28;20033;-75
2022/06/20 14:45:41;;;;;;;7.63;3.10;;;22.80;99.90;;;;;;5248707;28;20485;-76